Time;durP1;ratioP1;P1;durP2;ratioP2;P2;SDS_P1;SDS_P2;PMS_P1;PMS_P2;Temp;Humidity;BMP_temperature;BMP_pressure;BME280_temperature;BME280_humidity;BME280_pressure;Samples;Min_cycle;Max_cycle;Signal;HPM_P1;HPM_P2
2022/10/04 00:02:24;;;;;;;20.80;5.67;;;;;;;-145.69;100.00;72650.22;5034863;28;20200;-76
2022/10/04 00:05:00;;;;;;;21.63;5.93;;;;;;;-145.69;100.00;72646.25;5035408;28;20210;-75
2022/10/04 00:07:31;;;;;;;11.93;5.07;;;;;;;-145.69;100.00;72658.19;5035276;28;20218;-76
2022/10/04 00:10:01;;;;;;;22.47;5.40;;;;;;;-145.69;100.00;72664.16;5035033;28;20287;-76
2022/10/04 00:12:32;;;;;;;16.40;5.43;;;;;;;-145.69;100.00;72654.22;5035107;28;20242;-75
2022/10/04 00:15:01;;;;;;;17.20;5.87;;;;;;;-145.69;100.00;72656.22;5034826;28;20195;-75
2022/10/04 00:17:31;;;;;;;10.97;5.07;;;;;;;-145.69;100.00;72658.19;5034513;28;20240;-74
2022/10/04 00:19:59;;;;;;;13.63;5.60;;;;;;;-145.69;100.00;72652.22;5034827;28;20200;-75
2022/10/04 00:22:27;;;;;;;14.37;4.87;;;;;;;-145.69;100.00;72662.19;5034807;28;20200;-75
2022/10/04 00:25:19;;;;;;;16.27;5.30;;;;;;;-145.69;100.00;72668.16;5034662;28;20571;-74
2022/10/04 00:28:15;;;;;;;22.17;4.90;;;;;;;-145.69;100.00;72654.22;5035005;28;20211;-75
2022/10/04 00:30:41;;;;;;;17.53;5.97;;;;;;;-145.69;100.00;72640.28;5034208;28;20196;-75
2022/10/04 00:33:09;;;;;;;19.10;5.03;;;;;;;-145.69;100.00;72656.22;5033820;28;20690;-75
2022/10/04 00:35:50;;;;;;;20.83;5.50;;;;;;;-145.69;100.00;72648.25;5034428;28;20599;-75
2022/10/04 00:38:24;;;;;;;9.17;5.17;;;;;;;-145.69;100.00;72654.22;5033964;28;20207;-75
2022/10/04 00:40:57;;;;;;;13.97;5.47;;;;;;;-145.69;100.00;72644.25;5034573;28;20288;-75
2022/10/04 00:43:28;;;;;;;12.67;5.40;;;;;;;-145.69;100.00;72646.25;5034330;28;20242;-76
2022/10/04 00:45:59;;;;;;;13.77;5.00;;;;;;;-145.69;100.00;72652.22;5034092;28;20204;-75
2022/10/04 00:48:34;;;;;;;14.90;4.90;;;;;;;-145.69;100.00;72650.22;5034469;28;20203;-75
2022/10/04 00:51:10;;;;;;;19.00;5.27;;;;;;;-145.69;100.00;72648.25;5034387;28;20210;-75
2022/10/04 00:53:45;;;;;;;12.00;5.43;;;;;;;-145.69;100.00;72662.19;5034045;28;20254;-75
2022/10/04 00:56:17;;;;;;;13.70;4.80;;;;;;;-145.69;100.00;72662.19;5034206;28;20598;-74
2022/10/04 00:59:03;;;;;;;19.27;4.90;;;;;;;-145.69;100.00;72668.16;5034009;28;20669;-74
2022/10/04 01:01:35;;;;;;;15.13;5.47;;;;;;;-145.69;100.00;72664.16;5033833;28;20200;-75
2022/10/04 01:04:06;;;;;;;13.07;5.63;;;;;;;-145.69;100.00;72660.19;5033981;28;20559;-75
2022/10/04 01:06:36;;;;;;;18.70;5.07;;;;;;;-145.69;100.00;72648.25;5033825;28;20689;-74
2022/10/04 01:09:09;;;;;;;12.83;5.53;;;;;;;-145.69;100.00;72644.25;5034202;28;20204;-75
2022/10/04 01:11:40;;;;;;;22.30;5.72;;;;;;;-145.69;100.00;72648.25;5033293;28;20433;-75
2022/10/04 01:14:13;;;;;;;16.40;4.80;;;;;;;-145.69;100.00;72648.25;5033520;28;20227;-74
2022/10/04 01:16:40;;;;;;;12.33;5.07;;;;;;;-145.69;100.00;72642.28;5032952;28;20232;-75
2022/10/04 01:19:29;;;;;;;11.17;4.60;;;;;;;-145.69;100.00;72646.25;5033544;28;20209;-75
2022/10/04 01:22:09;;;;;;;17.93;4.97;;;;;;;-145.69;100.00;72636.31;5033584;28;20215;-74
2022/10/04 01:24:39;;;;;;;14.10;5.70;;;;;;;-145.69;100.00;72628.34;5031951;28;20196;-75
2022/10/04 01:27:37;;;;;;;14.97;4.80;;;;;;;-145.69;100.00;72622.38;5033498;28;20200;-76
2022/10/04 01:30:08;;;;;;;21.77;4.50;;;;;;;-145.69;100.00;72632.31;5032900;28;20207;-74
2022/10/04 01:32:35;;;;;;;18.20;4.20;;;;;;;-145.69;100.00;72632.31;5033478;28;20247;-74
2022/10/04 01:35:01;;;;;;;21.70;5.20;;;;;;;-145.69;100.00;72636.31;5033604;28;20200;-74
2022/10/04 01:37:29;;;;;;;8.90;4.57;;;;;;;-145.69;100.00;72644.25;5033218;28;20200;-76
2022/10/04 01:39:56;;;;;;;23.83;5.10;;;;;;;-145.69;100.00;72644.25;5033268;28;20215;-76
2022/10/04 01:42:27;;;;;;;13.67;4.97;;;;;;;-145.69;100.00;72634.31;5033610;28;20196;-75
2022/10/04 01:45:01;;;;;;;10.40;4.47;;;;;;;-145.69;100.00;72632.31;5033404;28;20208;-76
2022/10/04 01:47:33;;;;;;;16.30;5.07;;;;;;;-145.69;100.00;72622.38;5033884;28;20203;-76
2022/10/04 01:50:05;;;;;;;18.17;5.40;;;;;;;-145.69;100.00;72624.34;5032874;28;20437;-74
2022/10/04 01:52:39;;;;;;;13.50;4.93;;;;;;;-145.69;100.00;72622.38;5033150;28;20438;-74
2022/10/04 01:55:11;;;;;;;19.50;5.10;;;;;;;-145.69;100.00;72610.44;5033318;28;20204;-76
2022/10/04 01:57:43;;;;;;;14.83;4.57;;;;;;;-145.69;100.00;72612.41;5032398;28;20211;-76
2022/10/04 02:00:14;;;;;;;10.30;4.60;;;;;;;-145.69;100.00;72620.38;5033028;28;20203;-75
2022/10/04 02:02:45;;;;;;;13.60;5.23;;;;;;;-145.69;100.00;72624.34;5032902;28;20219;-75
2022/10/04 02:05:26;;;;;;;13.63;4.20;;;;;;;-145.69;100.00;72636.31;5033146;28;20196;-75
2022/10/04 02:07:55;;;;;;;11.97;5.00;;;;;;;-145.69;100.00;72648.25;5032591;28;20254;-76
2022/10/04 02:10:24;;;;;;;22.57;5.37;;;;;;;-145.69;100.00;72660.19;5032818;28;20540;-76
2022/10/04 02:12:54;;;;;;;14.97;5.40;;;;;;;-145.69;100.00;72676.09;5032781;28;20199;-75
2022/10/04 02:15:25;;;;;;;11.63;4.30;;;;;;;-145.69;100.00;72684.06;5032677;28;20208;-75
2022/10/04 02:17:54;;;;;;;12.30;5.33;;;;;;;-145.69;100.00;72668.16;5033008;28;20239;-75
2022/10/04 02:20:24;;;;;;;10.33;5.80;;;;;;;-145.69;100.00;72666.16;5032618;28;20562;-75
2022/10/04 02:22:55;;;;;;;12.23;5.13;;;;;;;-145.69;100.00;72668.16;5032896;28;20215;-75
2022/10/04 02:25:22;;;;;;;12.40;4.90;;;;;;;-145.69;100.00;72664.16;5032385;28;20211;-76
2022/10/04 02:27:52;;;;;;;17.07;5.47;;;;;;;-145.69;100.00;72648.25;5032635;28;20218;-76
2022/10/04 02:30:19;;;;;;;12.60;5.17;;;;;;;-145.69;100.00;72654.22;5033041;28;20192;-75
2022/10/04 02:32:59;;;;;;;17.27;5.57;;;;;;;-145.69;100.00;72662.19;5032920;28;20203;-75
2022/10/04 02:35:28;;;;;;;12.40;5.00;;;;;;;-145.69;100.00;72686.06;5032784;28;20290;-75
2022/10/04 02:38:02;;;;;;;15.53;4.87;;;;;;;-145.69;100.00;72676.09;5032424;28;20196;-75
2022/10/04 02:40:33;;;;;;;22.10;5.30;;;;;;;-145.69;100.00;72656.22;5032697;28;20199;-74
2022/10/04 02:43:08;;;;;;;14.00;5.37;;;;;;;-145.69;100.00;72652.22;5032268;28;20200;-75
2022/10/04 02:45:43;;;;;;;13.10;5.53;;;;;;;-145.69;100.00;72656.22;5031956;28;20566;-75
2022/10/04 02:48:27;;;;;;;21.10;5.33;;;;;;;-145.69;100.00;72656.22;5032669;28;20199;-75
2022/10/04 02:50:57;;;;;;;15.10;4.93;;;;;;;-145.69;100.00;72650.22;5032317;28;20230;-76
2022/10/04 02:53:29;;;;;;;19.67;5.07;;;;;;;-145.69;100.00;72656.22;5032435;28;20231;-75
2022/10/04 02:55:56;;;;;;;18.30;5.00;;;;;;;-145.69;100.00;72636.31;5035250;28;20207;-75
2022/10/04 02:58:24;;;;;;;14.00;5.33;;;;;;;-145.69;100.00;72634.31;5036412;28;20214;-75
2022/10/04 03:00:55;;;;;;;15.47;4.80;;;;;;;-145.69;100.00;72640.28;5035930;28;20196;-75
2022/10/04 03:03:26;;;;;;;12.10;5.77;;;;;;;-145.69;100.00;72640.28;5036189;28;20735;-75
2022/10/04 03:06:04;;;;;;;18.50;4.93;;;;;;;-145.69;100.00;72662.19;5036335;28;20205;-75
2022/10/04 03:08:34;;;;;;;13.30;4.87;;;;;;;-145.69;100.00;72662.19;5036175;28;20338;-75
2022/10/04 03:11:03;;;;;;;16.63;5.50;;;;;;;-145.69;100.00;72668.16;5035728;28;20204;-75
2022/10/04 03:13:31;;;;;;;15.43;5.17;;;;;;;-145.69;100.00;72690.03;5035847;28;20224;-75
2022/10/04 03:15:57;;;;;;;9.30;4.93;;;;;;;-145.69;100.00;72715.91;5036032;28;20235;-76
2022/10/04 03:18:25;;;;;;;11.37;4.80;;;;;;;-145.69;100.00;72729.84;5035662;28;20210;-74
2022/10/04 03:20:52;;;;;;;17.73;5.03;;;;;;;-145.69;100.00;72705.97;5035817;28;20204;-75
2022/10/04 03:23:20;;;;;;;18.83;5.80;;;;;;;-145.69;100.00;72682.09;5035795;28;20246;-75
2022/10/04 03:25:53;;;;;;;16.60;6.53;;;;;;;-145.69;100.00;72682.09;5035820;28;20223;-74
2022/10/04 03:28:20;;;;;;;16.43;6.60;;;;;;;-145.69;100.00;72680.09;5035482;28;20666;-74
2022/10/04 03:30:47;;;;;;;19.33;5.97;;;;;;;-145.69;100.00;72684.06;5035767;28;20200;-74
2022/10/04 03:33:20;;;;;;;15.03;6.03;;;;;;;-145.69;100.00;72698.00;5035804;28;20199;-75
2022/10/04 03:35:51;;;;;;;23.00;6.13;;;;;;;-145.69;100.00;72676.09;5035393;28;20700;-75
2022/10/04 03:38:19;;;;;;;15.67;6.33;;;;;;;-145.69;100.00;72672.13;5035566;28;20208;-74
2022/10/04 03:40:52;;;;;;;26.45;8.10;;;;;;;-145.69;100.00;72654.22;5035331;28;20448;-75
2022/10/04 03:43:22;;;;;;;20.00;6.83;;;;;;;-145.69;100.00;72660.19;5035689;28;20215;-74
2022/10/04 03:45:49;;;;;;;24.07;6.87;;;;;;;-145.69;100.00;72656.22;5035353;28;20209;-74
2022/10/04 03:48:25;;;;;;;14.93;6.57;;;;;;;-145.69;100.00;72648.25;5035607;28;20204;-76
2022/10/04 03:50:54;;;;;;;24.37;7.10;;;;;;;-145.69;100.00;72656.22;5035380;28;20206;-75
2022/10/04 03:53:29;;;;;;;15.80;5.70;;;;;;;-145.69;100.00;72674.13;5035465;28;20204;-75
2022/10/04 03:55:57;;;;;;;12.60;4.67;;;;;;;-145.69;100.00;72715.91;5035234;28;20206;-75
2022/10/04 03:58:26;;;;;;;13.93;5.13;;;;;;;-145.69;100.00;72731.84;5035214;28;20200;-75
2022/10/04 04:01:04;;;;;;;19.77;5.20;;;;;;;-145.69;100.00;72747.78;5035226;28;20204;-75
2022/10/04 04:03:38;;;;;;;14.87;5.33;;;;;;;-145.69;100.00;72767.69;5034822;28;20196;-75
2022/10/04 04:06:14;;;;;;;10.07;5.33;;;;;;;-145.69;100.00;72783.59;5034710;28;20203;-76
2022/10/04 04:08:43;;;;;;;16.57;5.53;;;;;;;-145.69;100.00;72791.56;5034813;28;20685;-76
2022/10/04 04:11:17;;;;;;;13.53;4.77;;;;;;;-145.69;100.00;72791.56;5035009;28;20669;-75
2022/10/04 04:13:50;;;;;;;10.80;5.07;;;;;;;-145.69;100.00;72799.53;5034676;28;20227;-75
2022/10/04 04:16:19;;;;;;;15.13;6.70;;;;;;;-145.69;100.00;72773.66;5034800;28;20319;-75
2022/10/04 04:18:48;;;;;;;21.90;7.60;;;;;;;-145.69;100.00;72735.81;5035066;28;20211;-75
2022/10/04 04:21:19;;;;;;;19.37;7.40;;;;;;;-145.69;100.00;72735.81;5034930;28;20200;-76
2022/10/04 04:23:50;;;;;;;17.63;6.97;;;;;;;-145.69;100.00;72731.84;5034656;28;20663;-75
2022/10/04 04:26:25;;;;;;;23.90;8.37;;;;;;;-145.69;100.00;72703.97;5034895;28;20208;-75
2022/10/04 04:28:55;;;;;;;29.77;8.67;;;;;;;-145.69;100.00;72696.00;5034715;28;20195;-75
2022/10/04 04:31:25;;;;;;;18.13;8.17;;;;;;;-145.69;100.00;72682.09;5034790;28;20200;-76
2022/10/04 04:33:59;;;;;;;24.30;7.63;;;;;;;-145.69;100.00;72696.00;5034159;28;20230;-75
2022/10/04 04:36:28;;;;;;;26.77;7.97;;;;;;;-145.69;100.00;72688.06;5034598;28;20566;-76
2022/10/04 04:41:50;;;;;;;25.27;7.47;;;;;;;-145.69;100.00;72696.00;5020412;28;20208;-75
2022/10/04 04:44:19;;;;;;;18.17;7.73;;;;;;;-145.69;100.00;72680.09;5014387;28;20208;-76
2022/10/04 04:46:46;;;;;;;26.57;7.27;;;;;;;-145.69;100.00;72698.00;5014754;28;20228;-75
2022/10/04 04:49:16;;;;;;;18.17;6.97;;;;;;;-145.69;100.00;72735.81;5014202;28;20205;-75
2022/10/04 04:51:49;;;;;;;18.07;6.93;;;;;;;-145.69;100.00;72749.75;5014357;28;20197;-75
2022/10/04 04:54:17;;;;;;;15.70;6.67;;;;;;;-145.69;100.00;72757.72;5014474;28;20256;-75
2022/10/04 04:56:44;;;;;;;34.77;8.43;;;;;;;-145.69;100.00;72731.84;5031177;28;20678;-75
2022/10/04 04:59:12;;;;;;;26.30;8.03;;;;;;;-145.69;100.00;72743.78;5034095;28;20208;-75
2022/10/04 05:01:43;;;;;;;15.07;6.50;;;;;;;-145.69;100.00;72767.69;5033734;28;20699;-76
2022/10/04 05:04:18;;;;;;;28.70;7.37;;;;;;;-145.69;100.00;72779.63;5033877;28;20212;-76
2022/10/04 05:06:48;;;;;;;19.50;7.63;;;;;;;-145.69;100.00;72781.59;5033759;28;20203;-75
2022/10/04 05:09:25;;;;;;;31.03;8.13;;;;;;;-145.69;100.00;72781.59;5034084;28;20536;-75
2022/10/04 05:11:54;;;;;;;16.67;6.40;;;;;;;-145.69;100.00;72791.56;5033961;28;20569;-75
2022/10/04 05:14:21;;;;;;;18.27;7.17;;;;;;;-145.69;100.00;72791.56;5033633;28;20259;-75
2022/10/04 05:16:50;;;;;;;27.10;8.43;;;;;;;-145.69;100.00;72779.63;5033642;28;20232;-75
2022/10/04 05:19:21;;;;;;;29.27;9.57;;;;;;;-145.69;100.00;72751.75;5033625;28;20204;-75
2022/10/04 05:21:52;;;;;;;26.33;9.57;;;;;;;-145.69;100.00;72745.78;5033802;28;20732;-75
2022/10/04 05:24:23;;;;;;;34.40;13.30;;;;;;;-145.69;100.00;72739.81;5032760;28;20513;-75
2022/10/04 05:26:52;;;;;;;32.07;10.47;;;;;;;-145.69;100.00;72757.72;5033989;28;20200;-75
2022/10/04 05:29:22;;;;;;;32.17;9.23;;;;;;;-145.69;100.00;72765.69;5033670;28;20203;-76
2022/10/04 05:31:56;;;;;;;27.40;8.63;;;;;;;-145.69;100.00;72759.72;5033426;28;20681;-75
2022/10/04 05:34:24;;;;;;;21.70;8.07;;;;;;;-145.69;100.00;72761.69;5033509;28;20228;-75
2022/10/04 05:37:05;;;;;;;17.97;7.20;;;;;;;-145.69;100.00;72783.59;5033704;28;20209;-75
2022/10/04 05:39:38;;;;;;;24.87;8.40;;;;;;;-145.69;100.00;72775.63;5033053;28;20223;-75
2022/10/04 05:42:12;;;;;;;22.63;8.57;;;;;;;-145.69;100.00;72767.69;5033301;28;20200;-75
2022/10/04 05:44:48;;;;;;;26.07;9.17;;;;;;;-145.69;100.00;72767.69;5033425;28;20208;-75
2022/10/04 05:47:21;;;;;;;17.87;7.47;;;;;;;-145.69;100.00;72789.56;5033336;28;20722;-75
2022/10/04 05:49:48;;;;;;;23.97;8.00;;;;;;;-145.69;100.00;72793.56;5033195;28;20725;-75
2022/10/04 05:52:26;;;;;;;30.93;9.03;;;;;;;-145.69;100.00;72761.69;5033008;28;20341;-75
2022/10/04 05:55:15;;;;;;;26.07;9.87;;;;;;;-145.69;100.00;72743.78;5033351;28;20235;-76
2022/10/04 05:57:51;;;;;;;31.73;9.87;;;;;;;-145.69;100.00;72731.84;5033296;28;20204;-75
2022/10/04 06:00:20;;;;;;;33.50;10.73;;;;;;;-145.69;100.00;72719.91;5032835;28;20238;-75
2022/10/04 06:03:24;;;;;;;31.87;10.37;;;;;;;-145.69;100.00;72698.00;5033214;28;20230;-75
2022/10/04 06:05:54;;;;;;;33.43;10.37;;;;;;;-145.69;100.00;72694.03;5033022;28;20254;-75
2022/10/04 06:08:38;;;;;;;28.83;11.37;;;;;;;-145.69;100.00;72684.06;5032921;28;20207;-77
2022/10/04 06:11:14;;;;;;;26.73;9.80;;;;;;;-145.69;100.00;72672.13;5033108;28;20203;-75
2022/10/04 06:14:05;;;;;;;35.47;11.30;;;;;;;-145.69;100.00;72652.22;5032863;28;20208;-75
2022/10/04 06:16:49;;;;;;;28.30;11.30;;;;;;;-145.69;100.00;72638.28;5032855;28;20318;-76
2022/10/04 06:19:53;;;;;;;32.77;10.70;;;;;;;-145.69;100.00;72624.34;5032464;28;20207;-75
2022/10/04 06:22:21;;;;;;;30.03;10.67;;;;;;;-145.69;100.00;72626.34;5032887;28;20253;-75
2022/10/04 06:24:51;;;;;;;28.10;10.20;;;;;;;-145.69;100.00;72624.34;5032811;28;20208;-75
2022/10/04 06:27:24;;;;;;;26.70;9.93;;;;;;;-145.69;100.00;72622.38;5032572;28;20208;-76
2022/10/04 06:29:55;;;;;;;25.80;10.20;;;;;;;-145.69;100.00;72620.38;5033354;28;20196;-75
2022/10/04 06:32:41;;;;;;;26.77;9.37;;;;;;;-145.69;100.00;72618.38;5037000;28;20200;-76
2022/10/04 06:35:25;;;;;;;22.30;9.83;;;;;;;-145.69;100.00;72612.41;5036789;28;20226;-75
2022/10/04 06:38:13;;;;;;;30.37;9.60;;;;;;;-145.69;100.00;72620.38;5036580;28;20208;-76
2022/10/04 06:41:03;;;;;;;29.33;8.80;;;;;;;-145.69;100.00;72600.47;5031191;28;20210;-76
2022/10/04 06:43:47;;;;;;;18.30;9.50;;;;;;;-145.69;100.00;72584.56;5036661;28;20234;-76
2022/10/04 06:46:19;;;;;;;22.93;9.27;;;;;;;-145.69;100.00;72576.59;5036476;28;20199;-76
2022/10/04 06:49:18;;;;;;;39.17;10.43;;;;;;;-145.69;100.00;72566.63;5036535;28;20196;-75
2022/10/04 06:52:02;;;;;;;24.42;11.52;;;;;;;-145.69;100.00;72556.69;5035710;28;20875;-76
2022/10/04 06:54:44;;;;;;;25.20;9.40;;;;;;;-145.69;100.00;72540.75;5036116;28;20211;-76
2022/10/04 06:57:45;;;;;;;19.70;8.63;;;;;;;-145.69;100.00;72520.84;5036147;28;20226;-76
2022/10/04 07:00:16;;;;;;;27.97;10.23;;;;;;;-145.69;100.00;72508.91;5036351;28;20571;-76
2022/10/04 07:02:49;;;;;;;22.77;9.30;;;;;;;-145.69;100.00;72489.00;5036212;28;20594;-76
2022/10/04 07:05:29;;;;;;;21.90;9.50;;;;;;;-145.69;100.00;72461.13;5036333;28;20196;-75
2022/10/04 07:08:06;;;;;;;23.50;9.60;;;;;;;-145.69;100.00;72441.25;5036418;28;20586;-74
2022/10/04 07:10:38;;;;;;;21.90;8.20;;;;;;;-145.69;100.00;72415.38;5036199;28;20204;-75
2022/10/04 07:13:20;;;;;;;22.43;8.17;;;;;;;-145.69;100.00;72389.50;5036227;28;20211;-75
2022/10/04 07:15:52;;;;;;;20.07;7.90;;;;;;;-145.69;100.00;72363.63;5035921;28;20244;-74
2022/10/04 07:18:25;;;;;;;12.10;7.27;;;;;;;-145.69;100.00;72351.66;5035924;28;20196;-75
2022/10/04 07:21:00;;;;;;;14.03;7.37;;;;;;;-145.69;100.00;72313.84;5035950;28;20200;-75
2022/10/04 07:23:32;;;;;;;16.50;7.77;;;;;;;-145.69;100.00;72286.00;5036041;28;20199;-75
2022/10/04 07:26:05;;;;;;;14.87;6.80;;;;;;;-145.69;100.00;72291.97;5035831;28;20200;-75
2022/10/04 07:31:27;;;;;;;10.03;5.13;;;;;;;-145.69;100.00;72299.91;5035740;28;20237;-74
2022/10/04 07:33:57;;;;;;;9.83;5.40;;;;;;;-145.69;100.00;72286.00;5035730;28;20334;-74
2022/10/04 07:36:28;;;;;;;11.10;5.73;;;;;;;-145.69;100.00;72252.16;5035837;28;20227;-75
2022/10/04 07:39:00;;;;;;;10.43;5.80;;;;;;;-145.69;100.00;72274.06;5035867;28;20200;-75
2022/10/04 07:41:34;;;;;;;12.50;5.50;;;;;;;-145.69;100.00;72264.09;5034173;28;20656;-74
2022/10/04 07:44:06;;;;;;;10.73;5.43;;;;;;;-145.69;100.00;72242.22;5035680;28;20212;-75
2022/10/04 07:46:44;;;;;;;16.80;6.70;;;;;;;-145.69;100.00;72210.38;5035469;28;20208;-74
2022/10/04 07:49:14;;;;;;;14.43;6.13;;;;;;;-145.69;100.00;72186.47;5035655;28;20218;-74
2022/10/04 07:51:55;;;;;;;9.97;5.43;;;;;;;-145.69;100.00;72170.56;5035141;28;20200;-75
2022/10/04 07:54:31;;;;;;;13.40;5.40;;;;;;;-145.69;100.00;72146.69;5034217;28;20442;-76
2022/10/04 07:57:01;;;;;;;10.27;5.05;;;;;;;-145.69;100.00;72118.81;5035290;28;20207;-75
2022/10/04 07:59:39;;;;;;;10.27;5.43;;;;;;;-145.69;100.00;72075.03;5033499;28;20676;-74
2022/10/04 08:02:17;;;;;;;9.10;4.10;;;;;;;-145.69;100.00;72059.09;5035538;28;20196;-75
2022/10/04 08:04:54;;;;;;;13.13;4.50;;;;;;;-145.69;100.00;72057.13;5035266;28;20196;-75
2022/10/04 08:07:26;;;;;;;8.05;3.80;;;;;;;-145.69;100.00;72043.19;5028882;28;20647;-73
2022/10/04 08:10:02;;;;;;;7.45;3.80;;;;;;;-145.69;100.00;72031.25;5015471;28;20201;-77
2022/10/04 08:12:42;;;;;;;7.88;4.25;;;;;;;-145.69;100.00;71991.44;5015386;28;20300;-76
2022/10/04 08:15:36;;;;;;;7.10;3.13;;;;;;;-145.69;100.00;71981.50;5023265;28;20232;-76
2022/10/04 08:18:14;;;;;;;8.25;3.53;;;;;;;-145.69;100.00;71971.53;5030525;28;20207;-76
2022/10/04 08:20:48;;;;;;;6.35;2.88;;;;;;;-145.69;100.00;71959.59;5031351;28;20203;-76
2022/10/04 08:23:41;;;;;;;5.43;3.47;;;;;;;-145.69;100.00;71971.53;5034519;28;20685;-76
2022/10/04 08:26:29;;;;;;;6.00;2.78;;;;;;;-145.69;100.00;71979.50;5015112;28;20205;-76
2022/10/04 08:32:05;;;;;;;10.63;4.35;;;;;;;-145.69;100.00;71899.88;5014433;28;20215;-76
2022/10/04 08:34:52;;;;;;;7.57;3.85;;;;;;;-145.69;100.00;71919.78;5014941;28;20184;-75
2022/10/04 08:37:31;;;;;;;4.38;2.55;;;;;;;-145.69;100.00;71907.84;5014836;28;20214;-74
2022/10/04 08:40:23;;;;;;;8.52;3.70;;;;;;;-145.69;100.00;71897.91;5015499;28;20296;-74
2022/10/04 08:43:24;;;;;;;11.07;3.88;;;;;;;-145.69;100.00;71858.09;5014283;28;20229;-74
2022/10/04 08:46:21;;;;;;;7.35;2.92;;;;;;;-145.69;100.00;71852.13;5004282;28;20200;-74
2022/10/04 08:49:30;;;;;;;6.38;2.67;;;;;;;-145.69;100.00;71848.16;5014546;28;20227;-74
2022/10/04 08:52:26;;;;;;;4.65;2.08;;;;;;;-145.69;100.00;71832.22;5024756;28;20204;-74
2022/10/04 08:55:11;;;;;;;6.07;2.50;;;;;;;-145.69;100.00;71832.22;5033999;28;20211;-75
2022/10/04 08:57:56;;;;;;;4.90;2.25;;;;;;;-145.69;100.00;71826.25;5034322;28;20201;-75
2022/10/04 09:00:31;;;;;;;4.30;2.00;;;;;;;-145.69;100.00;71834.22;5034124;28;20204;-74
2022/10/04 09:03:35;;;;;;;6.72;2.28;;;;;;;-145.69;100.00;71844.16;5034099;28;20207;-74
2022/10/04 09:06:24;;;;;;;7.68;2.53;;;;;;;-145.69;100.00;71852.13;5034047;28;20200;-74
2022/10/04 09:09:45;;;;;;;8.75;2.13;;;;;;;-145.69;100.00;71836.22;5033944;28;20211;-74
2022/10/04 09:12:35;;;;;;;4.43;2.30;;;;;;;-145.69;100.00;71832.22;5034026;28;20204;-74
2022/10/04 09:15:15;;;;;;;5.43;2.17;;;;;;;-145.69;100.00;71794.41;5033815;28;20281;-74
2022/10/04 09:17:53;;;;;;;3.58;2.22;;;;;;;-145.69;100.00;71762.56;5033536;28;20228;-74
2022/10/04 09:20:23;;;;;;;4.55;1.90;;;;;;;-145.69;100.00;71796.41;5033510;28;20203;-75
2022/10/04 09:22:56;;;;;;;6.63;2.28;;;;;;;-145.69;100.00;71774.50;5033762;28;20211;-74
2022/10/04 09:25:40;;;;;;;5.15;1.90;;;;;;;-145.69;100.00;71770.53;5033581;28;20208;-74
2022/10/04 09:28:23;;;;;;;6.22;2.20;;;;;;;-145.69;100.00;71718.78;5033159;28;20204;-74
2022/10/04 09:31:07;;;;;;;3.85;2.70;;;;;;;-145.69;100.00;71708.84;5033550;28;20589;-74
2022/10/04 09:34:01;;;;;;;5.47;2.30;;;;;;;-145.69;100.00;71684.97;5033636;28;20200;-74
2022/10/04 09:36:44;;;;;;;5.55;2.17;;;;;;;-145.69;100.00;71680.97;5031651;28;20228;-74
2022/10/04 09:39:33;;;;;;;4.22;1.80;;;;;;;-145.69;100.00;71653.13;5033265;28;20211;-74
2022/10/04 09:42:25;;;;;;;4.32;2.13;;;;;;;-145.69;100.00;71663.06;5033467;28;20672;-75
2022/10/04 09:45:14;;;;;;;2.70;1.90;;;;;;;-145.69;100.00;71655.13;5033175;28;20207;-74
2022/10/04 09:47:44;;;;;;;4.93;2.15;;;;;;;-145.69;100.00;71647.16;5033395;28;20204;-74
2022/10/04 09:50:40;;;;;;;4.65;2.13;;;;;;;-145.69;100.00;71637.19;5033098;28;20200;-75
2022/10/04 09:53:35;;;;;;;4.53;2.28;;;;;;;-145.69;100.00;71645.16;5033402;28;20200;-75
2022/10/04 09:56:28;;;;;;;7.28;2.00;;;;;;;-145.69;100.00;71633.22;5031472;28;20348;-74
2022/10/04 09:59:17;;;;;;;4.07;1.63;;;;;;;-145.69;100.00;71595.41;5030536;28;20647;-74
2022/10/04 10:02:03;;;;;;;3.72;1.77;;;;;;;-145.69;100.00;71577.50;5032913;28;20206;-75
2022/10/04 10:04:46;;;;;;;3.97;1.38;;;;;;;-145.69;100.00;71581.50;5032154;28;20200;-75
2022/10/04 10:07:28;;;;;;;2.78;1.65;;;;;;;-145.69;100.00;71559.59;5032947;28;20207;-75
2022/10/04 10:16:28;;;;;;;5.88;1.30;;;;;;;-145.69;100.00;71561.59;5021758;28;20327;-74
2022/10/04 10:19:22;;;;;;;1.67;1.30;;;;;;;-145.69;97.92;71593.44;5032854;28;20503;-74
2022/10/04 10:22:02;;;;;;;3.50;1.40;;;;;;;-145.69;100.00;71593.44;5027661;28;20204;-73
2022/10/04 10:24:49;;;;;;;3.35;1.25;;;;;;;-145.69;100.00;71609.34;5032016;28;20199;-74
2022/10/04 10:27:36;;;;;;;6.22;1.13;;;;;;;-145.69;100.00;71617.31;5013009;28;20209;-75
2022/10/04 10:30:15;;;;;;;2.72;1.15;;;;;;;-145.69;100.00;71611.34;5019593;28;20196;-74
2022/10/04 10:33:14;;;;;;;2.92;1.30;;;;;;;-145.69;100.00;71605.38;5032737;28;20206;-74
2022/10/04 10:35:53;;;;;;;3.80;1.10;;;;;;;-145.69;100.00;71611.34;5029730;28;20234;-75
2022/10/04 10:38:33;;;;;;;1.67;1.02;;;;;;;-145.69;100.00;71577.50;5032816;28;20195;-75
2022/10/04 10:41:24;;;;;;;1.63;1.30;;;;;;;-145.69;99.03;71585.47;5032505;28;20204;-74
2022/10/04 10:44:09;;;;;;;2.03;1.20;;;;;;;-145.69;100.00;71549.66;5032867;28;20670;-75
2022/10/04 10:47:04;;;;;;;5.53;1.52;;;;;;;-145.69;100.00;71517.81;5032517;28;20200;-76
2022/10/04 10:49:45;;;;;;;1.20;1.10;;;;;;;-145.69;97.27;71509.84;5030893;28;20232;-75
2022/10/04 10:52:55;;;;;;;2.33;0.90;;;;;;;-145.69;93.80;71489.94;5030462;28;20203;-76
2022/10/04 10:55:59;;;;;;;2.25;0.98;;;;;;;-145.69;90.28;71491.94;5032194;28;20678;-76
2022/10/04 10:58:52;;;;;;;3.08;1.20;;;;;;;-145.69;83.50;71509.84;5032494;28;20207;-77
2022/10/04 11:01:45;;;;;;;0.85;0.80;;;;;;;-145.69;85.68;71499.91;5032544;28;20200;-75
2022/10/04 11:04:38;;;;;;;1.88;1.00;;;;;;;-145.69;83.40;71513.81;5032241;28;20658;-76
2022/10/04 11:07:51;;;;;;;1.08;0.90;;;;;;;-145.69;81.42;71497.91;5032280;28;20574;-76
2022/10/04 11:10:38;;;;;;;0.93;0.80;;;;;;;-145.69;80.98;71511.84;5032057;28;20200;-75
2022/10/04 11:13:29;;;;;;;2.78;1.08;;;;;;;-145.69;81.62;71515.81;5032404;28;20211;-75
2022/10/04 11:16:26;;;;;;;0.75;0.73;;;;;;;-145.69;83.12;71519.81;5033218;28;20232;-75
2022/10/04 11:19:27;;;;;;;1.95;0.90;;;;;;;-145.69;84.77;71507.84;5013759;28;20670;-76
2022/10/04 11:22:24;;;;;;;1.48;0.90;;;;;;;-145.69;87.41;71491.94;5016108;28;20562;-75
2022/10/04 11:25:19;;;;;;;2.70;0.77;;;;;;;-145.69;88.29;71489.94;5016143;28;20208;-76
2022/10/04 11:27:52;;;;;;;1.70;1.10;;;;;;;-145.69;88.80;71444.19;5007080;28;20291;-76
2022/10/04 11:30:25;;;;;;;2.47;1.00;;;;;;;-145.69;94.02;71424.28;5025009;28;20196;-76
2022/10/04 11:33:20;;;;;;;1.38;0.95;;;;;;;-145.69;78.76;71442.19;5035640;28;20266;-75
2022/10/04 11:36:03;;;;;;;2.03;0.88;;;;;;;-145.69;79.69;71442.19;5035604;28;20528;-75
2022/10/04 11:39:10;;;;;;;1.60;1.00;;;;;;;-145.69;82.07;71434.22;5035736;28;20206;-75
2022/10/04 11:41:55;;;;;;;1.45;0.70;;;;;;;-145.69;78.27;71422.28;4999717;28;20204;-75
2022/10/04 11:45:00;;;;;;;1.65;0.95;;;;;;;-145.69;86.64;71384.47;5035321;28;20207;-74
2022/10/04 11:47:41;;;;;;;1.73;0.90;;;;;;;-145.69;82.60;71404.38;5000177;28;20287;-74
2022/10/04 11:50:24;;;;;;;3.30;0.95;;;;;;;-145.69;82.57;71384.47;5035377;28;20204;-75
2022/10/04 11:53:38;;;;;;;1.90;0.80;;;;;;;-145.69;76.33;71340.72;5031893;28;20611;-76
2022/10/04 11:56:18;;;;;;;2.45;0.75;;;;;;;-145.69;77.19;71322.81;5034961;28;20231;-74
2022/10/04 11:58:59;;;;;;;1.00;0.73;;;;;;;-145.69;80.17;71302.91;5035138;28;20238;-75
2022/10/04 12:01:58;;;;;;;0.98;0.70;;;;;;;-145.69;69.78;71277.03;5034572;28;20246;-74
2022/10/04 12:05:22;;;;;;;0.90;0.65;;;;;;;-145.69;74.71;71277.03;5034995;28;20250;-75
2022/10/04 12:08:03;;;;;;;2.45;0.60;;;;;;;-145.69;67.34;71243.22;4933920;28;20202;-75
2022/10/04 12:10:36;;;;;;;0.60;0.60;;;;;;;-145.69;73.10;71239.22;4974035;28;20649;-75